sensor_id;sensor_type;location;lat;lon;timestamp;P1;durP1;ratioP1;P2;durP2;ratioP2
33583;SDS011;19913;45.308;5.914;2022-09-09T00:01:14;7.67;;;1.40;;
33583;SDS011;19913;45.308;5.914;2022-09-09T00:03:37;0.10;;;0.10;;
33583;SDS011;19913;45.308;5.914;2022-09-09T00:06:04;0.30;;;0.30;;
33583;SDS011;19913;45.308;5.914;2022-09-09T00:08:30;0.53;;;0.30;;
33583;SDS011;19913;45.308;5.914;2022-09-09T00:13:05;0.30;;;0.30;;
33583;SDS011;19913;45.308;5.914;2022-09-09T00:15:30;0.10;;;0.10;;
33583;SDS011;19913;45.308;5.914;2022-09-09T00:17:56;0.57;;;0.47;;
33583;SDS011;19913;45.308;5.914;2022-09-09T00:20:23;0.10;;;0.10;;
33583;SDS011;19913;45.308;5.914;2022-09-09T03:48:42;1.37;;;0.73;;
33583;SDS011;19913;45.308;5.914;2022-09-09T04:03:31;0.10;;;0.10;;
33583;SDS011;19913;45.308;5.914;2022-09-09T04:08:45;0.67;;;0.67;;
33583;SDS011;19913;45.308;5.914;2022-09-09T04:13:52;2.17;;;0.83;;
33583;SDS011;19913;45.308;5.914;2022-09-09T05:14:14;5.93;;;3.20;;
33583;SDS011;19913;45.308;5.914;2022-09-09T05:16:37;1.40;;;1.30;;
33583;SDS011;19913;45.308;5.914;2022-09-09T05:19:00;0.20;;;0.20;;
33583;SDS011;19913;45.308;5.914;2022-09-09T05:21:26;57.50;;;6.00;;
33583;SDS011;19913;45.308;5.914;2022-09-09T05:26:02;47.47;;;7.40;;
33583;SDS011;19913;45.308;5.914;2022-09-09T05:28:26;18.37;;;6.43;;
33583;SDS011;19913;45.308;5.914;2022-09-09T05:30:56;11.57;;;1.33;;
33583;SDS011;19913;45.308;5.914;2022-09-09T05:33:18;0.20;;;0.20;;
33583;SDS011;19913;45.308;5.914;2022-09-09T05:35:41;1.10;;;0.83;;
33583;SDS011;19913;45.308;5.914;2022-09-09T05:38:03;13.67;;;4.10;;
33583;SDS011;19913;45.308;5.914;2022-09-09T05:40:25;0.33;;;0.33;;
33583;SDS011;19913;45.308;5.914;2022-09-09T05:42:47;0.20;;;0.20;;
33583;SDS011;19913;45.308;5.914;2022-09-09T05:45:10;2.37;;;1.03;;
33583;SDS011;19913;45.308;5.914;2022-09-09T05:47:32;17.03;;;0.60;;
33583;SDS011;19913;45.308;5.914;2022-09-09T05:49:54;8.13;;;3.83;;
33583;SDS011;19913;45.308;5.914;2022-09-09T05:52:17;83.97;;;11.47;;
33583;SDS011;19913;45.308;5.914;2022-09-09T05:54:39;64.47;;;10.17;;
33583;SDS011;19913;45.308;5.914;2022-09-09T05:57:02;28.33;;;8.07;;
33583;SDS011;19913;45.308;5.914;2022-09-09T05:59:24;10.40;;;4.00;;
33583;SDS011;19913;45.308;5.914;2022-09-09T06:01:47;4.07;;;2.80;;
33583;SDS011;19913;45.308;5.914;2022-09-09T06:04:09;17.33;;;6.43;;
33583;SDS011;19913;45.308;5.914;2022-09-09T06:06:32;36.27;;;6.60;;
33583;SDS011;19913;45.308;5.914;2022-09-09T06:08:56;2.20;;;0.77;;
33583;SDS011;19913;45.308;5.914;2022-09-09T06:11:19;0.63;;;0.33;;
33583;SDS011;19913;45.308;5.914;2022-09-09T06:13:42;0.20;;;0.20;;
33583;SDS011;19913;45.308;5.914;2022-09-09T06:16:04;0.30;;;0.30;;
33583;SDS011;19913;45.308;5.914;2022-09-09T06:18:28;4.07;;;0.87;;
33583;SDS011;19913;45.308;5.914;2022-09-09T06:20:57;0.30;;;0.30;;
33583;SDS011;19913;45.308;5.914;2022-09-09T06:23:19;18.30;;;0.60;;
33583;SDS011;19913;45.308;5.914;2022-09-09T06:25:41;0.10;;;0.10;;
33583;SDS011;19913;45.308;5.914;2022-09-09T06:30:14;0.10;;;0.10;;
33583;SDS011;19913;45.308;5.914;2022-09-09T06:32:36;0.10;;;0.10;;
33583;SDS011;19913;45.308;5.914;2022-09-09T06:35:00;0.47;;;0.40;;
33583;SDS011;19913;45.308;5.914;2022-09-09T06:37:22;3.80;;;0.97;;
33583;SDS011;19913;45.308;5.914;2022-09-09T06:39:44;9.13;;;0.87;;
33583;SDS011;19913;45.308;5.914;2022-09-09T06:42:07;0.47;;;0.40;;
33583;SDS011;19913;45.308;5.914;2022-09-09T06:44:30;6.87;;;0.40;;
33583;SDS011;19913;45.308;5.914;2022-09-09T06:46:51;2.83;;;0.87;;
33583;SDS011;19913;45.308;5.914;2022-09-09T06:49:16;0.13;;;0.13;;
33583;SDS011;19913;45.308;5.914;2022-09-09T06:51:37;0.10;;;0.10;;
33583;SDS011;19913;45.308;5.914;2022-09-09T06:54:03;0.40;;;0.40;;
33583;SDS011;19913;45.308;5.914;2022-09-09T06:56:25;0.30;;;0.30;;
33583;SDS011;19913;45.308;5.914;2022-09-09T06:58:48;0.20;;;0.20;;
33583;SDS011;19913;45.308;5.914;2022-09-09T07:01:12;0.40;;;0.40;;
33583;SDS011;19913;45.308;5.914;2022-09-09T07:03:36;0.20;;;0.20;;
33583;SDS011;19913;45.308;5.914;2022-09-09T07:05:59;0.10;;;0.10;;
33583;SDS011;19913;45.308;5.914;2022-09-09T07:08:20;0.10;;;0.10;;
33583;SDS011;19913;45.308;5.914;2022-09-09T07:10:43;0.17;;;0.17;;
33583;SDS011;19913;45.308;5.914;2022-09-09T07:13:05;0.17;;;0.17;;
33583;SDS011;19913;45.308;5.914;2022-09-09T07:15:27;8.37;;;0.87;;
33583;SDS011;19913;45.308;5.914;2022-09-09T07:17:49;2.93;;;1.10;;
33583;SDS011;19913;45.308;5.914;2022-09-09T07:20:12;0.40;;;0.40;;
33583;SDS011;19913;45.308;5.914;2022-09-09T07:22:35;0.80;;;0.60;;
33583;SDS011;19913;45.308;5.914;2022-09-09T07:24:58;3.37;;;1.40;;
33583;SDS011;19913;45.308;5.914;2022-09-09T07:27:21;3.40;;;1.20;;
33583;SDS011;19913;45.308;5.914;2022-09-09T07:29:43;0.17;;;0.13;;
33583;SDS011;19913;45.308;5.914;2022-09-09T07:32:05;0.40;;;0.40;;
33583;SDS011;19913;45.308;5.914;2022-09-09T07:34:27;0.23;;;0.23;;
33583;SDS011;19913;45.308;5.914;2022-09-09T07:36:51;0.60;;;0.50;;
33583;SDS011;19913;45.308;5.914;2022-09-09T07:39:13;0.73;;;0.30;;
33583;SDS011;19913;45.308;5.914;2022-09-09T07:41:36;0.17;;;0.17;;
33583;SDS011;19913;45.308;5.914;2022-09-09T07:43:58;0.10;;;0.10;;
33583;SDS011;19913;45.308;5.914;2022-09-09T07:46:22;0.13;;;0.13;;
33583;SDS011;19913;45.308;5.914;2022-09-09T07:48:45;0.10;;;0.10;;
33583;SDS011;19913;45.308;5.914;2022-09-09T07:53:18;0.10;;;0.10;;
33583;SDS011;19913;45.308;5.914;2022-09-09T07:55:40;0.00;;;0.00;;
33583;SDS011;19913;45.308;5.914;2022-09-09T07:58:03;0.07;;;0.07;;
33583;SDS011;19913;45.308;5.914;2022-09-09T08:00:25;1.70;;;0.20;;
33583;SDS011;19913;45.308;5.914;2022-09-09T08:02:47;0.30;;;0.30;;
33583;SDS011;19913;45.308;5.914;2022-09-09T08:05:09;0.10;;;0.10;;
33583;SDS011;19913;45.308;5.914;2022-09-09T08:07:32;0.10;;;0.10;;
33583;SDS011;19913;45.308;5.914;2022-09-09T08:09:54;3.10;;;1.00;;
33583;SDS011;19913;45.308;5.914;2022-09-09T08:12:17;2.10;;;0.67;;
33583;SDS011;19913;45.308;5.914;2022-09-09T08:14:39;0.10;;;0.10;;
33583;SDS011;19913;45.308;5.914;2022-09-09T08:17:02;7.53;;;1.73;;
33583;SDS011;19913;45.308;5.914;2022-09-09T08:19:24;0.10;;;0.10;;
33583;SDS011;19913;45.308;5.914;2022-09-09T08:21:46;0.10;;;0.10;;
33583;SDS011;19913;45.308;5.914;2022-09-09T08:24:09;0.17;;;0.17;;
33583;SDS011;19913;45.308;5.914;2022-09-09T08:26:32;0.10;;;0.10;;
33583;SDS011;19913;45.308;5.914;2022-09-09T08:28:56;0.10;;;0.10;;
33583;SDS011;19913;45.308;5.914;2022-09-09T08:31:20;0.10;;;0.10;;
33583;SDS011;19913;45.308;5.914;2022-09-09T08:33:43;0.57;;;0.40;;
33583;SDS011;19913;45.308;5.914;2022-09-09T08:38:15;0.60;;;0.30;;
33583;SDS011;19913;45.308;5.914;2022-09-09T08:40:39;0.17;;;0.17;;
33583;SDS011;19913;45.308;5.914;2022-09-09T08:43:02;0.03;;;0.03;;
33583;SDS011;19913;45.308;5.914;2022-09-09T08:45:26;0.43;;;0.43;;
33583;SDS011;19913;45.308;5.914;2022-09-09T08:47:53;0.20;;;0.20;;
33583;SDS011;19913;45.308;5.914;2022-09-09T08:50:17;0.00;;;0.00;;
33583;SDS011;19913;45.308;5.914;2022-09-09T08:52:41;0.10;;;0.10;;
33583;SDS011;19913;45.308;5.914;2022-09-09T08:57:32;2.47;;;0.30;;
33583;SDS011;19913;45.308;5.914;2022-09-09T08:59:55;0.10;;;0.10;;
33583;SDS011;19913;45.308;5.914;2022-09-09T09:02:18;0.40;;;0.30;;
33583;SDS011;19913;45.308;5.914;2022-09-09T09:07:26;0.10;;;0.10;;
33583;SDS011;19913;45.308;5.914;2022-09-09T09:09:54;0.10;;;0.10;;
33583;SDS011;19913;45.308;5.914;2022-09-09T09:14:26;0.10;;;0.10;;
33583;SDS011;19913;45.308;5.914;2022-09-09T09:16:50;0.10;;;0.10;;
33583;SDS011;19913;45.308;5.914;2022-09-09T09:19:14;0.53;;;0.40;;
33583;SDS011;19913;45.308;5.914;2022-09-09T09:21:41;0.10;;;0.10;;
33583;SDS011;19913;45.308;5.914;2022-09-09T09:24:06;0.10;;;0.10;;
33583;SDS011;19913;45.308;5.914;2022-09-09T09:26:30;0.03;;;0.03;;
33583;SDS011;19913;45.308;5.914;2022-09-09T09:28:54;0.20;;;0.17;;
33583;SDS011;19913;45.308;5.914;2022-09-09T09:31:18;0.00;;;0.00;;
33583;SDS011;19913;45.308;5.914;2022-09-09T09:33:45;0.10;;;0.10;;
33583;SDS011;19913;45.308;5.914;2022-09-09T09:36:08;0.10;;;0.10;;
33583;SDS011;19913;45.308;5.914;2022-09-09T09:38:31;0.20;;;0.20;;
33583;SDS011;19913;45.308;5.914;2022-09-09T09:40:54;0.20;;;0.20;;
33583;SDS011;19913;45.308;5.914;2022-09-09T09:43:18;0.10;;;0.10;;
33583;SDS011;19913;45.308;5.914;2022-09-09T09:45:42;0.10;;;0.10;;
33583;SDS011;19913;45.308;5.914;2022-09-09T09:48:06;0.23;;;0.23;;
33583;SDS011;19913;45.308;5.914;2022-09-09T09:50:30;0.10;;;0.10;;
33583;SDS011;19913;45.308;5.914;2022-09-09T09:52:56;0.10;;;0.10;;
33583;SDS011;19913;45.308;5.914;2022-09-09T09:55:19;0.40;;;0.40;;
33583;SDS011;19913;45.308;5.914;2022-09-09T09:57:41;0.07;;;0.07;;
33583;SDS011;19913;45.308;5.914;2022-09-09T10:00:08;0.00;;;0.00;;
33583;SDS011;19913;45.308;5.914;2022-09-09T10:02:36;0.00;;;0.00;;
33583;SDS011;19913;45.308;5.914;2022-09-09T10:05:02;0.00;;;0.00;;
33583;SDS011;19913;45.308;5.914;2022-09-09T10:07:24;0.20;;;0.20;;
33583;SDS011;19913;45.308;5.914;2022-09-09T10:09:46;0.20;;;0.20;;
33583;SDS011;19913;45.308;5.914;2022-09-09T10:12:12;0.10;;;0.10;;
33583;SDS011;19913;45.308;5.914;2022-09-09T10:14:35;3.60;;;0.87;;
33583;SDS011;19913;45.308;5.914;2022-09-09T10:17:02;0.30;;;0.30;;
33583;SDS011;19913;45.308;5.914;2022-09-09T10:19:29;0.33;;;0.20;;
33583;SDS011;19913;45.308;5.914;2022-09-09T10:22:02;0.10;;;0.10;;
33583;SDS011;19913;45.308;5.914;2022-09-09T10:27:17;0.20;;;0.20;;
33583;SDS011;19913;45.308;5.914;2022-09-09T10:29:42;0.10;;;0.10;;
33583;SDS011;19913;45.308;5.914;2022-09-09T10:32:09;0.10;;;0.10;;
33583;SDS011;19913;45.308;5.914;2022-09-09T10:34:39;0.00;;;0.00;;
33583;SDS011;19913;45.308;5.914;2022-09-09T10:37:00;0.10;;;0.10;;
33583;SDS011;19913;45.308;5.914;2022-09-09T10:39:30;0.60;;;0.40;;
33583;SDS011;19913;45.308;5.914;2022-09-09T10:41:54;0.20;;;0.20;;
33583;SDS011;19913;45.308;5.914;2022-09-09T10:47:00;0.07;;;0.07;;
33583;SDS011;19913;45.308;5.914;2022-09-09T10:49:27;0.67;;;0.20;;
33583;SDS011;19913;45.308;5.914;2022-09-09T10:51:50;0.83;;;0.43;;
33583;SDS011;19913;45.308;5.914;2022-09-09T10:56:54;0.00;;;0.00;;
33583;SDS011;19913;45.308;5.914;2022-09-09T10:59:19;0.20;;;0.20;;
33583;SDS011;19913;45.308;5.914;2022-09-09T11:01:45;0.10;;;0.10;;
33583;SDS011;19913;45.308;5.914;2022-09-09T11:04:10;0.10;;;0.10;;
33583;SDS011;19913;45.308;5.914;2022-09-09T11:06:36;0.30;;;0.30;;
33583;SDS011;19913;45.308;5.914;2022-09-09T11:08:59;0.10;;;0.10;;
33583;SDS011;19913;45.308;5.914;2022-09-09T11:11:26;5.43;;;0.70;;
33583;SDS011;19913;45.308;5.914;2022-09-09T11:13:53;2.83;;;1.00;;
33583;SDS011;19913;45.308;5.914;2022-09-09T11:16:17;0.10;;;0.10;;
33583;SDS011;19913;45.308;5.914;2022-09-09T11:18:41;6.60;;;1.20;;
33583;SDS011;19913;45.308;5.914;2022-09-09T11:21:05;0.10;;;0.10;;
33583;SDS011;19913;45.308;5.914;2022-09-09T11:23:30;0.93;;;0.30;;
33583;SDS011;19913;45.308;5.914;2022-09-09T11:25:54;0.30;;;0.30;;
33583;SDS011;19913;45.308;5.914;2022-09-09T11:28:28;0.27;;;0.27;;
33583;SDS011;19913;45.308;5.914;2022-09-09T11:30:49;0.10;;;0.10;;
33583;SDS011;19913;45.308;5.914;2022-09-09T11:35:58;13.50;;;2.33;;
33583;SDS011;19913;45.308;5.914;2022-09-09T11:38:21;0.67;;;0.40;;
33583;SDS011;19913;45.308;5.914;2022-09-09T11:40:45;1.55;;;0.40;;
33583;SDS011;19913;45.308;5.914;2022-09-09T11:43:09;0.10;;;0.10;;
33583;SDS011;19913;45.308;5.914;2022-09-09T11:45:32;0.37;;;0.30;;
33583;SDS011;19913;45.308;5.914;2022-09-09T11:47:57;0.23;;;0.23;;
33583;SDS011;19913;45.308;5.914;2022-09-09T11:50:28;0.53;;;0.20;;
33583;SDS011;19913;45.308;5.914;2022-09-09T11:53:05;0.20;;;0.20;;
33583;SDS011;19913;45.308;5.914;2022-09-09T11:55:29;0.10;;;0.10;;
33583;SDS011;19913;45.308;5.914;2022-09-09T12:00:02;0.10;;;0.10;;
33583;SDS011;19913;45.308;5.914;2022-09-09T12:02:26;0.20;;;0.20;;
33583;SDS011;19913;45.308;5.914;2022-09-09T12:04:53;0.10;;;0.10;;
33583;SDS011;19913;45.308;5.914;2022-09-09T12:09:56;0.13;;;0.13;;
33583;SDS011;19913;45.308;5.914;2022-09-09T12:12:29;0.00;;;0.00;;
33583;SDS011;19913;45.308;5.914;2022-09-09T12:15:03;0.10;;;0.10;;
33583;SDS011;19913;45.308;5.914;2022-09-09T12:19:37;0.10;;;0.10;;
33583;SDS011;19913;45.308;5.914;2022-09-09T12:22:01;0.00;;;0.00;;
33583;SDS011;19913;45.308;5.914;2022-09-09T12:24:29;0.10;;;0.10;;
33583;SDS011;19913;45.308;5.914;2022-09-09T12:26:55;0.10;;;0.10;;
33583;SDS011;19913;45.308;5.914;2022-09-09T12:29:23;0.37;;;0.37;;
33583;SDS011;19913;45.308;5.914;2022-09-09T12:31:49;0.10;;;0.10;;
33583;SDS011;19913;45.308;5.914;2022-09-09T12:34:15;0.20;;;0.20;;
33583;SDS011;19913;45.308;5.914;2022-09-09T12:36:38;0.13;;;0.13;;
33583;SDS011;19913;45.308;5.914;2022-09-09T12:41:18;0.10;;;0.10;;
33583;SDS011;19913;45.308;5.914;2022-09-09T12:43:42;0.10;;;0.10;;
33583;SDS011;19913;45.308;5.914;2022-09-09T12:46:07;0.10;;;0.10;;
33583;SDS011;19913;45.308;5.914;2022-09-09T12:48:32;0.10;;;0.10;;
33583;SDS011;19913;45.308;5.914;2022-09-09T12:50:58;0.10;;;0.10;;
33583;SDS011;19913;45.308;5.914;2022-09-09T12:53:23;0.10;;;0.10;;
33583;SDS011;19913;45.308;5.914;2022-09-09T12:55:50;0.10;;;0.10;;
33583;SDS011;19913;45.308;5.914;2022-09-09T12:58:14;0.10;;;0.10;;
33583;SDS011;19913;45.308;5.914;2022-09-09T13:00:38;0.20;;;0.17;;
33583;SDS011;19913;45.308;5.914;2022-09-09T13:03:03;0.10;;;0.10;;
33583;SDS011;19913;45.308;5.914;2022-09-09T13:05:28;0.10;;;0.10;;
33583;SDS011;19913;45.308;5.914;2022-09-09T13:07:59;0.00;;;0.00;;
33583;SDS011;19913;45.308;5.914;2022-09-09T13:12:25;0.10;;;0.10;;
33583;SDS011;19913;45.308;5.914;2022-09-09T13:14:49;0.10;;;0.10;;
33583;SDS011;19913;45.308;5.914;2022-09-09T13:17:17;0.20;;;0.20;;
33583;SDS011;19913;45.308;5.914;2022-09-09T13:19:43;0.10;;;0.10;;
33583;SDS011;19913;45.308;5.914;2022-09-09T13:22:12;2.53;;;0.27;;
33583;SDS011;19913;45.308;5.914;2022-09-09T13:26:53;0.00;;;0.00;;
33583;SDS011;19913;45.308;5.914;2022-09-09T13:34:38;1.40;;;0.20;;
33583;SDS011;19913;45.308;5.914;2022-09-09T13:39:51;0.10;;;0.10;;
33583;SDS011;19913;45.308;5.914;2022-09-09T13:42:19;0.10;;;0.10;;
33583;SDS011;19913;45.308;5.914;2022-09-09T13:44:44;0.10;;;0.10;;
33583;SDS011;19913;45.308;5.914;2022-09-09T13:47:17;0.10;;;0.10;;
33583;SDS011;19913;45.308;5.914;2022-09-09T13:49:49;0.10;;;0.10;;
33583;SDS011;19913;45.308;5.914;2022-09-09T13:52:12;0.10;;;0.10;;
33583;SDS011;19913;45.308;5.914;2022-09-09T13:54:35;0.10;;;0.10;;
33583;SDS011;19913;45.308;5.914;2022-09-09T13:56:57;0.10;;;0.10;;
33583;SDS011;19913;45.308;5.914;2022-09-09T13:59:20;0.00;;;0.00;;
33583;SDS011;19913;45.308;5.914;2022-09-09T14:03:52;0.10;;;0.10;;
33583;SDS011;19913;45.308;5.914;2022-09-09T14:06:14;0.13;;;0.13;;
33583;SDS011;19913;45.308;5.914;2022-09-09T14:08:36;0.17;;;0.17;;
33583;SDS011;19913;45.308;5.914;2022-09-09T14:10:58;0.10;;;0.10;;
33583;SDS011;19913;45.308;5.914;2022-09-09T14:13:21;0.00;;;0.00;;
33583;SDS011;19913;45.308;5.914;2022-09-09T14:17:53;0.00;;;0.00;;
33583;SDS011;19913;45.308;5.914;2022-09-09T14:20:15;0.10;;;0.10;;
33583;SDS011;19913;45.308;5.914;2022-09-09T14:22:37;0.10;;;0.10;;
33583;SDS011;19913;45.308;5.914;2022-09-09T14:24:59;0.13;;;0.13;;
33583;SDS011;19913;45.308;5.914;2022-09-09T14:27:21;0.00;;;0.00;;
33583;SDS011;19913;45.308;5.914;2022-09-09T14:29:43;7.53;;;0.20;;
33583;SDS011;19913;45.308;5.914;2022-09-09T14:32:05;0.30;;;0.23;;
33583;SDS011;19913;45.308;5.914;2022-09-09T14:34:28;0.10;;;0.10;;
33583;SDS011;19913;45.308;5.914;2022-09-09T14:36:50;0.10;;;0.10;;
33583;SDS011;19913;45.308;5.914;2022-09-09T14:39:12;0.10;;;0.10;;
33583;SDS011;19913;45.308;5.914;2022-09-09T14:41:34;0.10;;;0.10;;
33583;SDS011;19913;45.308;5.914;2022-09-09T14:43:56;0.10;;;0.10;;
33583;SDS011;19913;45.308;5.914;2022-09-09T14:48:28;0.00;;;0.00;;
33583;SDS011;19913;45.308;5.914;2022-09-09T14:50:50;0.30;;;0.27;;
33583;SDS011;19913;45.308;5.914;2022-09-09T14:53:12;0.30;;;0.30;;
33583;SDS011;19913;45.308;5.914;2022-09-09T14:55:35;0.00;;;0.00;;
33583;SDS011;19913;45.308;5.914;2022-09-09T15:00:08;0.00;;;0.00;;
33583;SDS011;19913;45.308;5.914;2022-09-09T15:02:31;0.00;;;0.00;;
33583;SDS011;19913;45.308;5.914;2022-09-09T15:04:54;0.00;;;0.00;;
33583;SDS011;19913;45.308;5.914;2022-09-09T15:07:16;0.10;;;0.10;;
33583;SDS011;19913;45.308;5.914;2022-09-09T15:11:48;0.00;;;0.00;;
33583;SDS011;19913;45.308;5.914;2022-09-09T15:14:12;0.10;;;0.10;;
33583;SDS011;19913;45.308;5.914;2022-09-09T15:16:34;0.10;;;0.10;;
33583;SDS011;19913;45.308;5.914;2022-09-09T15:18:58;0.00;;;0.00;;
33583;SDS011;19913;45.308;5.914;2022-09-09T15:23:31;0.30;;;0.30;;
33583;SDS011;19913;45.308;5.914;2022-09-09T15:25:55;0.10;;;0.10;;
33583;SDS011;19913;45.308;5.914;2022-09-09T15:28:17;0.17;;;0.17;;
33583;SDS011;19913;45.308;5.914;2022-09-09T15:30:40;0.10;;;0.10;;
33583;SDS011;19913;45.308;5.914;2022-09-09T15:33:02;0.10;;;0.10;;
33583;SDS011;19913;45.308;5.914;2022-09-09T15:35:25;0.00;;;0.00;;
33583;SDS011;19913;45.308;5.914;2022-09-09T15:37:48;0.10;;;0.10;;
33583;SDS011;19913;45.308;5.914;2022-09-09T15:40:10;0.00;;;0.00;;
33583;SDS011;19913;45.308;5.914;2022-09-09T15:42:32;0.00;;;0.00;;
33583;SDS011;19913;45.308;5.914;2022-09-09T15:44:54;1.40;;;0.47;;
33583;SDS011;19913;45.308;5.914;2022-09-09T15:47:17;0.10;;;0.10;;
33583;SDS011;19913;45.308;5.914;2022-09-09T15:49:39;0.20;;;0.20;;
33583;SDS011;19913;45.308;5.914;2022-09-09T15:52:02;0.10;;;0.10;;
33583;SDS011;19913;45.308;5.914;2022-09-09T15:54:24;0.00;;;0.00;;
33583;SDS011;19913;45.308;5.914;2022-09-09T15:56:47;0.03;;;0.03;;
33583;SDS011;19913;45.308;5.914;2022-09-09T15:59:11;0.30;;;0.17;;
33583;SDS011;19913;45.308;5.914;2022-09-09T16:01:36;0.20;;;0.20;;
33583;SDS011;19913;45.308;5.914;2022-09-09T16:03:59;0.00;;;0.00;;
33583;SDS011;19913;45.308;5.914;2022-09-09T16:06:22;0.00;;;0.00;;
33583;SDS011;19913;45.308;5.914;2022-09-09T16:08:45;0.00;;;0.00;;
33583;SDS011;19913;45.308;5.914;2022-09-09T16:13:16;0.00;;;0.00;;
33583;SDS011;19913;45.308;5.914;2022-09-09T16:15:38;0.00;;;0.00;;
33583;SDS011;19913;45.308;5.914;2022-09-09T16:18:01;0.00;;;0.00;;
33583;SDS011;19913;45.308;5.914;2022-09-09T16:20:23;0.00;;;0.00;;
33583;SDS011;19913;45.308;5.914;2022-09-09T16:22:45;0.00;;;0.00;;
33583;SDS011;19913;45.308;5.914;2022-09-09T16:25:08;0.00;;;0.00;;
33583;SDS011;19913;45.308;5.914;2022-09-09T16:27:30;0.10;;;0.10;;
33583;SDS011;19913;45.308;5.914;2022-09-09T16:29:53;0.30;;;0.30;;
33583;SDS011;19913;45.308;5.914;2022-09-09T16:32:15;0.10;;;0.10;;
33583;SDS011;19913;45.308;5.914;2022-09-09T16:34:38;0.10;;;0.10;;
33583;SDS011;19913;45.308;5.914;2022-09-09T16:37:02;0.00;;;0.00;;
33583;SDS011;19913;45.308;5.914;2022-09-09T16:39:28;0.00;;;0.00;;
33583;SDS011;19913;45.308;5.914;2022-09-09T16:41:52;0.50;;;0.07;;
33583;SDS011;19913;45.308;5.914;2022-09-09T16:44:16;0.00;;;0.00;;
33583;SDS011;19913;45.308;5.914;2022-09-09T16:48:49;0.20;;;0.20;;
33583;SDS011;19913;45.308;5.914;2022-09-09T16:51:13;0.10;;;0.10;;
33583;SDS011;19913;45.308;5.914;2022-09-09T16:53:36;0.00;;;0.00;;
33583;SDS011;19913;45.308;5.914;2022-09-09T16:55:59;0.07;;;0.07;;
33583;SDS011;19913;45.308;5.914;2022-09-09T16:58:23;0.10;;;0.10;;
33583;SDS011;19913;45.308;5.914;2022-09-09T17:00:45;0.00;;;0.00;;
33583;SDS011;19913;45.308;5.914;2022-09-09T17:03:10;0.00;;;0.00;;
33583;SDS011;19913;45.308;5.914;2022-09-09T17:05:33;0.00;;;0.00;;
33583;SDS011;19913;45.308;5.914;2022-09-09T17:10:07;0.13;;;0.13;;
33583;SDS011;19913;45.308;5.914;2022-09-09T17:12:29;0.00;;;0.00;;
33583;SDS011;19913;45.308;5.914;2022-09-09T17:14:52;0.13;;;0.13;;
33583;SDS011;19913;45.308;5.914;2022-09-09T17:17:14;0.00;;;0.00;;
33583;SDS011;19913;45.308;5.914;2022-09-09T17:19:37;0.10;;;0.10;;
33583;SDS011;19913;45.308;5.914;2022-09-09T17:21:59;0.00;;;0.00;;
33583;SDS011;19913;45.308;5.914;2022-09-09T17:24:22;0.00;;;0.00;;
33583;SDS011;19913;45.308;5.914;2022-09-09T17:26:45;0.00;;;0.00;;
33583;SDS011;19913;45.308;5.914;2022-09-09T17:29:07;0.73;;;0.40;;
33583;SDS011;19913;45.308;5.914;2022-09-09T17:31:29;0.00;;;0.00;;
33583;SDS011;19913;45.308;5.914;2022-09-09T17:33:52;0.10;;;0.10;;
33583;SDS011;19913;45.308;5.914;2022-09-09T17:36:15;0.03;;;0.03;;
33583;SDS011;19913;45.308;5.914;2022-09-09T17:38:38;0.00;;;0.00;;
33583;SDS011;19913;45.308;5.914;2022-09-09T17:41:02;0.17;;;0.17;;
33583;SDS011;19913;45.308;5.914;2022-09-09T17:43:25;0.10;;;0.10;;
33583;SDS011;19913;45.308;5.914;2022-09-09T17:45:47;0.00;;;0.00;;
33583;SDS011;19913;45.308;5.914;2022-09-09T17:48:09;0.00;;;0.00;;
33583;SDS011;19913;45.308;5.914;2022-09-09T17:50:32;0.00;;;0.00;;
33583;SDS011;19913;45.308;5.914;2022-09-09T17:52:56;7.10;;;4.87;;
33583;SDS011;19913;45.308;5.914;2022-09-09T17:55:18;92.50;;;15.50;;
33583;SDS011;19913;45.308;5.914;2022-09-09T17:57:42;48.80;;;8.10;;
33583;SDS011;19913;45.308;5.914;2022-09-09T18:00:05;11.73;;;3.27;;
33583;SDS011;19913;45.308;5.914;2022-09-09T18:02:28;1.10;;;1.00;;
33583;SDS011;19913;45.308;5.914;2022-09-09T18:04:50;0.33;;;0.33;;
33583;SDS011;19913;45.308;5.914;2022-09-09T18:07:12;0.23;;;0.23;;
33583;SDS011;19913;45.308;5.914;2022-09-09T18:09:35;0.20;;;0.20;;
33583;SDS011;19913;45.308;5.914;2022-09-09T18:11:57;0.10;;;0.10;;
33583;SDS011;19913;45.308;5.914;2022-09-09T18:14:20;0.63;;;0.50;;
33583;SDS011;19913;45.308;5.914;2022-09-09T18:16:43;0.00;;;0.00;;
33583;SDS011;19913;45.308;5.914;2022-09-09T18:19:08;0.53;;;0.30;;
33583;SDS011;19913;45.308;5.914;2022-09-09T18:21:31;0.10;;;0.10;;
33583;SDS011;19913;45.308;5.914;2022-09-09T18:26:06;0.10;;;0.10;;
33583;SDS011;19913;45.308;5.914;2022-09-09T18:28:29;0.30;;;0.20;;
33583;SDS011;19913;45.308;5.914;2022-09-09T18:30:52;0.30;;;0.30;;
33583;SDS011;19913;45.308;5.914;2022-09-09T18:33:14;0.10;;;0.10;;
33583;SDS011;19913;45.308;5.914;2022-09-09T18:35:36;0.10;;;0.10;;
33583;SDS011;19913;45.308;5.914;2022-09-09T18:37:58;0.20;;;0.20;;
33583;SDS011;19913;45.308;5.914;2022-09-09T18:40:20;0.07;;;0.07;;
33583;SDS011;19913;45.308;5.914;2022-09-09T18:42:42;0.17;;;0.17;;
33583;SDS011;19913;45.308;5.914;2022-09-09T18:45:06;0.13;;;0.13;;
33583;SDS011;19913;45.308;5.914;2022-09-09T18:47:29;2.70;;;1.27;;
33583;SDS011;19913;45.308;5.914;2022-09-09T18:49:52;0.20;;;0.20;;
33583;SDS011;19913;45.308;5.914;2022-09-09T18:52:14;0.00;;;0.00;;
33583;SDS011;19913;45.308;5.914;2022-09-09T18:54:36;0.10;;;0.10;;
33583;SDS011;19913;45.308;5.914;2022-09-09T18:56:58;0.30;;;0.20;;
33583;SDS011;19913;45.308;5.914;2022-09-09T18:59:22;0.20;;;0.20;;
33583;SDS011;19913;45.308;5.914;2022-09-09T19:01:44;0.17;;;0.17;;
33583;SDS011;19913;45.308;5.914;2022-09-09T19:04:07;0.07;;;0.07;;
33583;SDS011;19913;45.308;5.914;2022-09-09T19:10:49;0.00;;;0.00;;
33583;SDS011;19913;45.308;5.914;2022-09-09T19:13:11;0.00;;;0.00;;
33583;SDS011;19913;45.308;5.914;2022-09-09T19:15:35;0.10;;;0.10;;
33583;SDS011;19913;45.308;5.914;2022-09-09T19:20:07;0.33;;;0.07;;
33583;SDS011;19913;45.308;5.914;2022-09-09T19:22:30;0.10;;;0.10;;
33583;SDS011;19913;45.308;5.914;2022-09-09T19:24:52;0.20;;;0.20;;
33583;SDS011;19913;45.308;5.914;2022-09-09T19:27:15;0.70;;;0.70;;
33583;SDS011;19913;45.308;5.914;2022-09-09T19:31:47;0.10;;;0.10;;
33583;SDS011;19913;45.308;5.914;2022-09-09T19:34:09;0.13;;;0.13;;
33583;SDS011;19913;45.308;5.914;2022-09-09T19:36:32;0.10;;;0.10;;
33583;SDS011;19913;45.308;5.914;2022-09-09T19:38:55;0.10;;;0.10;;
33583;SDS011;19913;45.308;5.914;2022-09-09T19:41:19;0.30;;;0.30;;
33583;SDS011;19913;45.308;5.914;2022-09-09T19:43:41;0.20;;;0.20;;
33583;SDS011;19913;45.308;5.914;2022-09-09T19:46:04;0.00;;;0.00;;
33583;SDS011;19913;45.308;5.914;2022-09-09T19:48:27;0.33;;;0.33;;
33583;SDS011;19913;45.308;5.914;2022-09-09T19:50:51;0.10;;;0.10;;
33583;SDS011;19913;45.308;5.914;2022-09-09T19:56:01;0.97;;;0.40;;
33583;SDS011;19913;45.308;5.914;2022-09-09T20:03:52;0.10;;;0.10;;
33583;SDS011;19913;45.308;5.914;2022-09-09T20:04:25;0.10;;;0.10;;
33583;SDS011;19913;45.308;5.914;2022-09-09T20:09:32;0.30;;;0.30;;
33583;SDS011;19913;45.308;5.914;2022-09-09T20:20:07;0.70;;;0.47;;
33583;SDS011;19913;45.308;5.914;2022-09-09T20:22:38;0.00;;;0.00;;
33583;SDS011;19913;45.308;5.914;2022-09-09T20:25:04;12.33;;;1.13;;
33583;SDS011;19913;45.308;5.914;2022-09-09T20:29:47;0.10;;;0.10;;
33583;SDS011;19913;45.308;5.914;2022-09-09T20:32:11;0.17;;;0.17;;
33583;SDS011;19913;45.308;5.914;2022-09-09T20:34:33;0.77;;;0.30;;
33583;SDS011;19913;45.308;5.914;2022-09-09T20:36:55;2.13;;;0.53;;
33583;SDS011;19913;45.308;5.914;2022-09-09T20:39:18;0.10;;;0.10;;
33583;SDS011;19913;45.308;5.914;2022-09-09T20:41:42;0.13;;;0.13;;
33583;SDS011;19913;45.308;5.914;2022-09-09T20:44:07;21.40;;;1.30;;
33583;SDS011;19913;45.308;5.914;2022-09-09T20:46:31;0.10;;;0.10;;
33583;SDS011;19913;45.308;5.914;2022-09-09T20:48:56;0.10;;;0.10;;